Hauptseite
METAR-TAF:

METAR-TAF

Flughäfen :

Flugplatz Pontoise-Cormeilles

Pontoise, Frankreich

Breite: 49-05-48N, Länge: 002-02-27E, Höhe: 99 m

Beobachtung

Neuester Wetterbericht von vor 12 Minuten, um 12:30 UTC
Wind 16 kt aus Süd/Südwest, variierte zwischen Süd und West/Südwest
Temperatur 15°C
Luftfeuchtigkeit 63%
Luftdruck 1014 hPa
Sichtweite 10 km oder mehr
Durchbrochene Bewölkung in der Höhe von 3200 ft

METAR: LFPT 261230Z AUTO 21016KT 180V240 9999 BKN032 15/08 Q1014

Zeit: 14:42 (12:42 UTC)


TAF: fehlend

Wetterbeobachtungen und Prognosen von mehr als 4000 Flughäfen (METAR und TAF Bericht).

Die verfügbaren Stationen werden durch gelbe und rote Markierungen auf der Karte dargestellt.

Führen Sie die Maus auf sie, um den Namen der Station zu sehen.

Darauf klicken, um die Beobachtung von Wetterbeobachtungen und Prognosen zu sehen.

Um die Karte zu ändern : klicken Sie auf den grünen Tasten mit einem schwarzen Kreuz Zum Vergrößern, auf den grünen Button mit einem Gedankenstrich zu verkleinern, oder auf die grünen Pfeile für benachbarte Karten.


METAR-TAF: